Time;durP1;ratioP1;P1;durP2;ratioP2;P2;SDS_P1;SDS_P2;PMS_P1;PMS_P2;Temp;Humidity;BMP_temperature;BMP_pressure;BME280_temperature;BME280_humidity;BME280_pressure;Samples;Min_cycle;Max_cycle;Signal;HPM_P1;HPM_P2
2021/09/16 00:00:10;;;;;;;17.00;15.20;;;;;;;17.54;73.96;100662.81;4988623;28;20034;-67
2021/09/16 00:02:36;;;;;;;19.63;14.77;;;;;;;17.60;73.91;100662.88;5003540;28;20121;-67
2021/09/16 00:05:01;;;;;;;23.50;15.35;;;;;;;17.73;73.52;100674.34;5011536;28;20109;-67
2021/09/16 00:07:27;;;;;;;19.05;15.20;;;;;;;17.61;74.57;100667.25;5011206;28;20473;-67
2021/09/16 00:09:52;;;;;;;20.13;15.15;;;;;;;17.50;75.64;100673.22;5011360;28;20030;-67
2021/09/16 00:12:18;;;;;;;21.23;16.20;;;;;;;17.53;75.17;100665.41;5011367;28;20022;-68
2021/09/16 00:14:43;;;;;;;20.75;17.10;;;;;;;17.72;74.69;100674.31;5011224;28;20024;-68
2021/09/16 00:17:09;;;;;;;16.42;14.73;;;;;;;17.66;74.10;100655.97;5011314;28;20092;-67
2021/09/16 00:19:35;;;;;;;23.15;15.85;;;;;;;17.65;74.04;100670.75;5010880;28;20432;-67
2021/09/16 00:22:00;;;;;;;19.00;14.68;;;;;;;17.68;73.53;100669.94;5011625;28;20100;-68
2021/09/16 00:24:26;;;;;;;18.40;13.85;;;;;;;17.51;72.81;100639.28;5011386;28;20401;-67
2021/09/16 00:26:51;;;;;;;19.17;13.73;;;;;;;17.86;71.55;100671.88;5011373;28;20025;-67
2021/09/16 00:29:16;;;;;;;15.95;13.35;;;;;;;17.73;69.95;100636.91;5014907;28;20030;-67
2021/09/16 00:31:42;;;;;;;18.80;13.73;;;;;;;18.04;69.05;100666.81;5015263;28;20030;-68
2021/09/16 00:34:07;;;;;;;17.33;12.82;;;;;;;18.02;68.87;100658.13;5014712;28;20507;-67
2021/09/16 00:36:33;;;;;;;16.80;13.05;;;;;;;18.13;68.03;100666.06;5014960;28;20057;-67
2021/09/16 00:38:58;;;;;;;18.42;13.60;;;;;;;18.20;68.29;100673.06;5014707;28;20030;-67
2021/09/16 00:41:28;;;;;;;18.55;12.40;;;;;;;17.81;67.86;100619.59;5014468;28;20026;-67
2021/09/16 00:43:53;;;;;;;;;;;;;;;18.09;67.06;100657.31;5015246;28;20041;-67
2021/09/16 00:46:19;;;;;;;18.13;13.02;;;;;;;18.13;66.90;100659.94;5014817;28;19913;-67
2021/09/16 00:48:44;;;;;;;21.63;13.27;;;;;;;17.59;66.90;100582.81;5014654;28;20029;-67
2021/09/16 00:51:10;;;;;;;19.35;12.23;;;;;;;17.93;67.06;100651.03;5014352;28;20400;-67
2021/09/16 00:53:38;;;;;;;20.52;12.90;;;;;;;17.70;67.34;100623.81;5014397;28;20034;-67
2021/09/16 00:56:06;;;;;;;16.83;12.65;;;;;;;17.86;67.33;100650.97;5014466;28;20065;-68
2021/09/16 00:58:37;;;;;;;20.60;12.85;;;;;;;17.80;68.57;100646.56;5014254;28;20029;-67
2021/09/16 01:01:03;;;;;;;18.27;12.68;;;;;;;17.84;68.13;100652.69;4996735;28;20026;-68
2021/09/16 01:03:29;;;;;;;17.58;12.82;;;;;;;17.85;68.35;100655.31;5014387;28;20026;-67
2021/09/16 01:05:55;;;;;;;20.75;13.00;;;;;;;17.83;67.84;100651.81;5014209;28;20026;-67
2021/09/16 01:08:21;;;;;;;21.38;13.27;;;;;;;17.77;68.78;100647.41;5014345;28;20026;-67
2021/09/16 01:10:47;;;;;;;27.70;13.98;;;;;;;17.74;68.59;100649.09;5013882;28;20076;-68
2021/09/16 01:13:13;;;;;;;20.92;13.00;;;;;;;17.84;67.99;100648.31;5014283;28;20105;-66
2021/09/16 01:15:38;;;;;;;23.35;12.63;;;;;;;17.75;67.71;100654.34;5014006;28;20408;-67
2021/09/16 01:18:04;;;;;;;22.35;12.95;;;;;;;17.65;67.29;100626.38;5014171;28;20030;-69
2021/09/16 01:20:29;;;;;;;21.27;13.52;;;;;;;17.68;67.90;100646.44;5013887;28;20049;-67
2021/09/16 01:22:55;;;;;;;20.17;12.38;;;;;;;17.63;68.20;100636.81;5014344;28;20037;-67
2021/09/16 01:25:29;;;;;;;19.25;13.35;;;;;;;17.56;68.13;100647.19;5014313;28;20041;-67
2021/09/16 01:27:57;;;;;;;18.05;13.32;;;;;;;16.92;70.80;100643.78;5014176;28;20025;-68
2021/09/16 01:30:24;;;;;;;20.33;13.20;;;;;;;16.79;71.51;100653.13;5014191;28;20160;-67
2021/09/16 01:32:50;;;;;;;18.85;12.88;;;;;;;16.34;73.15;100655.06;5013780;28;20026;-68
2021/09/16 01:35:16;;;;;;;18.73;13.70;;;;;;;16.07;74.40;100654.59;4995917;28;20049;-68
2021/09/16 01:37:42;;;;;;;17.55;12.88;;;;;;;15.97;73.79;100606.69;5013096;28;20469;-67
2021/09/16 01:40:08;;;;;;;18.20;12.93;;;;;;;16.03;74.24;100645.00;5012278;28;20026;-67
2021/09/16 01:42:34;;;;;;;18.65;14.45;;;;;;;16.03;74.14;100640.66;5013875;28;20504;-68
2021/09/16 01:44:59;;;;;;;20.05;12.45;;;;;;;16.09;74.00;100655.50;5013694;28;20056;-67
2021/09/16 01:47:26;;;;;;;16.08;13.43;;;;;;;15.91;74.90;100653.44;5013351;28;20399;-67
2021/09/16 01:49:52;;;;;;;22.83;13.65;;;;;;;16.01;74.53;100670.97;5013362;28;20042;-67
2021/09/16 01:52:17;;;;;;;20.20;13.27;;;;;;;15.97;74.46;100659.63;5013422;28;20029;-67
2021/09/16 01:54:46;;;;;;;15.43;13.82;;;;;;;16.01;74.39;100665.78;4995560;28;20088;-67
2021/09/16 01:57:11;;;;;;;16.20;12.80;;;;;;;16.00;74.22;100659.69;4978753;28;20399;-67
2021/09/16 01:59:37;;;;;;;17.08;12.90;;;;;;;15.93;75.25;100665.63;5013067;28;20026;-68
2021/09/16 02:02:02;;;;;;;16.52;12.02;;;;;;;16.06;73.90;100658.03;5013113;28;20026;-66
2021/09/16 02:04:28;;;;;;;17.20;12.57;;;;;;;16.25;72.60;100660.13;5013215;28;20042;-67
2021/09/16 02:06:53;;;;;;;19.42;12.77;;;;;;;16.21;70.56;100611.41;5012857;28;20029;-67
2021/09/16 02:09:19;;;;;;;17.17;12.60;;;;;;;16.53;69.62;100650.13;5012891;28;20087;-68
2021/09/16 02:11:44;;;;;;;17.27;12.07;;;;;;;16.62;68.27;100652.91;5013189;28;20022;-68
2021/09/16 02:14:10;;;;;;;14.32;12.27;;;;;;;16.63;67.16;100652.00;5013205;28;20113;-67
2021/09/16 02:16:36;;;;;;;15.55;12.68;;;;;;;16.68;67.61;100665.13;4995287;28;20018;-67
2021/09/16 02:19:01;;;;;;;15.23;12.50;;;;;;;16.66;67.49;100667.72;5012738;28;20050;-67
2021/09/16 02:21:27;;;;;;;16.38;12.57;;;;;;;16.62;67.81;100665.94;5012720;28;20025;-69
2021/09/16 02:23:52;;;;;;;25.08;12.90;;;;;;;16.60;67.94;100665.03;5012651;28;20026;-68
2021/09/16 02:26:18;;;;;;;17.00;12.25;;;;;;;16.52;68.42;100671.84;5012698;28;20030;-67
2021/09/16 02:28:43;;;;;;;15.75;12.63;;;;;;;16.37;69.34;100671.59;4978029;28;20038;-69
2021/09/16 02:31:09;;;;;;;17.63;12.63;;;;;;;16.38;68.89;100655.97;5012858;28;20021;-69
2021/09/16 02:33:34;;;;;;;15.80;12.50;;;;;;;16.44;68.67;100655.22;4978516;28;20061;-69
2021/09/16 02:36:00;;;;;;;16.73;12.30;;;;;;;16.26;68.14;100622.81;5012519;28;20022;-69
2021/09/16 02:38:26;;;;;;;16.00;12.40;;;;;;;16.39;67.96;100634.28;5012448;28;20034;-68
2021/09/16 02:40:51;;;;;;;19.58;12.52;;;;;;;16.52;67.74;100653.59;5012087;28;20026;-68
2021/09/16 02:43:17;;;;;;;21.70;13.73;;;;;;;16.54;67.99;100659.72;5012066;28;20084;-69
2021/09/16 02:45:44;;;;;;;17.98;12.88;;;;;;;16.30;68.56;100632.41;5012358;28;20048;-69
2021/09/16 02:48:10;;;;;;;20.60;13.30;;;;;;;16.24;68.73;100606.25;5012531;28;20025;-71
2021/09/16 02:50:35;;;;;;;20.70;13.30;;;;;;;16.46;68.81;100654.38;5012220;28;20447;-68
2021/09/16 02:53:01;;;;;;;14.57;12.48;;;;;;;16.42;68.60;100647.34;5011969;28;20034;-68
2021/09/16 02:55:26;;;;;;;17.13;13.35;;;;;;;16.22;68.51;100610.56;5012313;28;20101;-69
2021/09/16 02:57:52;;;;;;;18.75;14.02;;;;;;;16.54;68.31;100651.88;5012038;28;20026;-68
2021/09/16 03:00:17;;;;;;;17.73;13.98;;;;;;;16.49;68.28;100661.38;5011988;28;20025;-68
2021/09/16 03:02:42;;;;;;;16.90;13.75;;;;;;;16.47;68.32;100663.97;5011953;28;20030;-68
2021/09/16 03:05:09;;;;;;;18.00;13.00;;;;;;;16.52;68.63;100665.75;5012072;28;20109;-69
2021/09/16 03:07:34;;;;;;;20.05;14.27;;;;;;;16.47;68.41;100668.28;5011941;28;20029;-68
2021/09/16 03:10:00;;;;;;;14.68;12.93;;;;;;;16.49;68.20;100664.84;4994567;28;20037;-68
2021/09/16 03:12:25;;;;;;;19.20;12.90;;;;;;;16.44;68.02;100655.22;5012029;28;20392;-68
2021/09/16 03:14:51;;;;;;;16.02;12.20;;;;;;;16.32;67.61;100667.19;5012059;28;20034;-68
2021/09/16 03:17:16;;;;;;;15.15;12.85;;;;;;;16.28;67.50;100665.38;5009683;28;20042;-68
2021/09/16 03:19:42;;;;;;;13.77;12.27;;;;;;;16.28;67.48;100670.59;4993953;28;20056;-68
2021/09/16 03:22:07;;;;;;;19.35;12.32;;;;;;;16.27;67.23;100654.94;5011543;28;20028;-68
2021/09/16 03:24:32;;;;;;;18.30;13.10;;;;;;;16.37;67.29;100669.00;5011829;28;20488;-68
2021/09/16 03:26:58;;;;;;;16.70;12.55;;;;;;;16.36;67.72;100672.44;5011435;28;20389;-68
2021/09/16 03:29:23;;;;;;;22.40;13.40;;;;;;;16.37;67.80;100669.84;5002544;28;20025;-68
2021/09/16 03:31:50;;;;;;;17.67;14.07;;;;;;;16.29;68.17;100669.72;5011382;28;20038;-68
2021/09/16 03:34:15;;;;;;;18.08;13.50;;;;;;;16.22;68.57;100673.09;5011277;28;20045;-68
2021/09/16 03:36:42;;;;;;;17.25;14.20;;;;;;;15.42;71.20;100675.03;4993107;28;20485;-67
2021/09/16 03:39:07;;;;;;;17.05;13.80;;;;;;;15.58;70.66;100678.84;5011647;28;20026;-67
2021/09/16 03:41:33;;;;;;;23.02;14.93;;;;;;;15.73;69.93;100680.00;5011475;28;20041;-68
2021/09/16 03:43:59;;;;;;;18.77;12.45;;;;;;;15.56;69.62;100644.09;5011675;28;20041;-68
2021/09/16 03:46:24;;;;;;;18.17;12.80;;;;;;;15.83;69.14;100682.81;5011536;28;20034;-68
2021/09/16 03:48:50;;;;;;;14.00;12.02;;;;;;;15.84;68.70;100686.31;5011504;28;20029;-68
2021/09/16 03:51:15;;;;;;;21.33;13.25;;;;;;;15.74;68.77;100672.22;5011155;28;20022;-71
2021/09/16 03:53:40;;;;;;;21.00;12.02;;;;;;;15.62;68.92;100652.00;5011218;28;20033;-68
2021/09/16 03:56:06;;;;;;;17.27;13.23;;;;;;;15.89;69.16;100684.66;5011367;28;20403;-68
2021/09/16 03:58:31;;;;;;;17.08;12.88;;;;;;;15.95;69.28;100697.81;5011293;28;20404;-68
2021/09/16 04:00:57;;;;;;;19.30;12.45;;;;;;;15.73;69.35;100660.03;4989941;28;20580;-68
2021/09/16 04:03:22;;;;;;;18.05;12.38;;;;;;;16.02;68.90;100690.97;5013698;28;20026;-68
2021/09/16 04:05:48;;;;;;;18.38;13.88;;;;;;;16.06;68.76;100690.16;5015187;28;20040;-68
2021/09/16 04:08:13;;;;;;;17.17;11.35;;;;;;;15.93;68.08;100662.16;5015252;28;20584;-68
2021/09/16 04:10:38;;;;;;;18.45;13.00;;;;;;;16.09;68.12;100700.66;5014858;28;20030;-70
2021/09/16 04:13:04;;;;;;;18.20;11.98;;;;;;;16.01;68.03;100692.72;5016003;28;20538;-70
2021/09/16 04:15:30;;;;;;;15.93;12.57;;;;;;;16.05;67.81;100696.25;5014786;28;20076;-68
2021/09/16 04:17:58;;;;;;;17.75;13.02;;;;;;;16.12;67.97;100700.69;5015142;28;20373;-67
2021/09/16 04:20:24;;;;;;;17.80;12.30;;;;;;;15.91;69.13;100706.38;5015250;28;20573;-70
2021/09/16 04:22:50;;;;;;;16.55;13.50;;;;;;;15.83;70.08;100705.38;5013484;28;20036;-70
2021/09/16 04:25:15;;;;;;;18.35;13.50;;;;;;;15.35;74.25;100714.78;5014649;28;20092;-70
2021/09/16 04:27:41;;;;;;;20.35;13.63;;;;;;;15.30;75.28;100712.09;5009592;28;20113;-69
2021/09/16 04:30:07;;;;;;;20.88;14.23;;;;;;;15.44;74.71;100695.88;5010257;28;20033;-69
2021/09/16 04:32:33;;;;;;;15.75;13.85;;;;;;;15.59;75.28;100701.41;5012423;28;20033;-68
2021/09/16 04:34:58;;;;;;;19.25;14.18;;;;;;;15.62;73.96;100698.00;5014286;28;20022;-71
2021/09/16 04:37:24;;;;;;;21.20;13.75;;;;;;;15.68;73.57;100698.97;5011027;28;20033;-67
2021/09/16 04:39:50;;;;;;;19.08;13.18;;;;;;;15.65;73.83;100698.94;5011202;28;20515;-70
2021/09/16 04:42:15;;;;;;;15.20;12.43;;;;;;;15.65;72.91;100685.03;5013318;28;20033;-68
2021/09/16 04:44:40;;;;;;;14.77;12.85;;;;;;;15.67;72.90;100697.22;5014235;28;20032;-71
2021/09/16 04:47:06;;;;;;;17.52;14.00;;;;;;;15.73;73.56;100698.22;5012350;28;20453;-68
2021/09/16 04:49:31;;;;;;;22.52;14.38;;;;;;;15.79;73.69;100686.19;5014184;28;20428;-70
2021/09/16 04:51:57;;;;;;;19.13;13.07;;;;;;;15.84;73.62;100694.13;5013952;28;20026;-72
2021/09/16 04:54:22;;;;;;;21.73;13.85;;;;;;;15.82;74.16;100682.78;5013854;28;20719;-67
2021/09/16 04:56:48;;;;;;;25.13;15.32;;;;;;;15.94;74.62;100696.03;5010264;28;20037;-70
2021/09/16 04:59:13;;;;;;;22.85;14.50;;;;;;;15.94;74.70;100692.56;5014011;28;20409;-68
2021/09/16 05:01:39;;;;;;;18.45;14.93;;;;;;;15.95;74.57;100682.19;5013465;28;20128;-71
2021/09/16 05:04:05;;;;;;;19.77;14.60;;;;;;;15.91;74.72;100680.34;5011755;28;20033;-70
2021/09/16 05:06:30;;;;;;;18.30;15.07;;;;;;;15.87;75.00;100683.75;5010576;28;20026;-69
2021/09/16 05:08:56;;;;;;;17.05;14.50;;;;;;;15.99;74.88;100704.81;5014005;28;20036;-70
2021/09/16 05:11:22;;;;;;;21.85;14.73;;;;;;;16.04;74.20;100704.91;5013761;28;20538;-67
2021/09/16 05:13:47;;;;;;;19.85;15.15;;;;;;;16.01;74.36;100702.22;5013203;28;20026;-70
2021/09/16 05:16:13;;;;;;;20.73;14.00;;;;;;;16.08;74.05;100698.03;5010670;28;20412;-69
2021/09/16 05:18:38;;;;;;;22.80;15.57;;;;;;;16.19;73.79;100701.69;5011225;28;20065;-69
2021/09/16 05:21:04;;;;;;;22.00;14.30;;;;;;;15.92;74.03;100652.59;5011584;28;20080;-68
2021/09/16 05:23:29;;;;;;;17.45;14.27;;;;;;;16.32;74.05;100703.66;5013035;28;20431;-69
2021/09/16 05:25:55;;;;;;;23.70;15.38;;;;;;;16.41;73.75;100707.25;5013319;28;20032;-69
2021/09/16 05:28:20;;;;;;;20.27;15.35;;;;;;;16.21;73.81;100663.50;5013430;28;20057;-70
2021/09/16 05:30:49;;;;;;;19.45;14.95;;;;;;;16.49;73.98;100708.28;5012412;28;20444;-70
2021/09/16 05:33:14;;;;;;;24.85;14.98;;;;;;;16.62;73.59;100711.94;5009558;28;20477;-66
2021/09/16 05:35:40;;;;;;;17.08;15.05;;;;;;;16.46;74.08;100709.13;5013268;28;20037;-70
2021/09/16 05:38:07;;;;;;;19.45;16.40;;;;;;;16.42;74.64;100709.88;5013549;28;20030;-71
2021/09/16 05:40:33;;;;;;;17.90;15.82;;;;;;;16.46;74.62;100701.28;5013322;28;20034;-69
2021/09/16 05:42:59;;;;;;;19.23;15.55;;;;;;;16.64;74.65;100698.09;5013237;28;20113;-69
2021/09/16 05:45:24;;;;;;;22.92;16.70;;;;;;;16.82;74.53;100702.72;5013447;28;20029;-69
2021/09/16 05:47:50;;;;;;;20.45;16.30;;;;;;;16.90;73.97;100709.78;5013314;28;20037;-67
2021/09/16 05:50:15;;;;;;;18.58;15.88;;;;;;;16.87;73.92;100676.69;5013222;28;20026;-70
2021/09/16 05:52:41;;;;;;;20.40;16.02;;;;;;;17.11;73.50;100683.16;5013305;28;20041;-69
2021/09/16 05:55:09;;;;;;;18.95;16.52;;;;;;;16.89;73.33;100653.28;5013075;28;20025;-67
2021/09/16 05:57:34;;;;;;;18.58;16.65;;;;;;;17.22;73.29;100705.06;5013012;28;20489;-70
2021/09/16 06:00:00;;;;;;;23.35;16.85;;;;;;;17.42;72.88;100704.41;5011695;28;20079;-69
2021/09/16 06:02:26;;;;;;;17.77;15.77;;;;;;;17.57;71.53;100707.25;5013103;28;20105;-71
2021/09/16 06:04:51;;;;;;;22.10;17.40;;;;;;;17.71;71.18;100706.53;5013068;28;20060;-69
2021/09/16 06:07:16;;;;;;;27.48;16.73;;;;;;;17.81;70.75;100705.75;5012867;28;20022;-70
2021/09/16 06:09:42;;;;;;;22.67;17.13;;;;;;;17.72;70.68;100710.88;5013083;28;20468;-69
2021/09/16 06:12:08;;;;;;;20.40;17.45;;;;;;;17.83;70.23;100704.06;5012903;28;20187;-68
2021/09/16 06:14:34;;;;;;;18.75;16.35;;;;;;;17.91;70.29;100711.97;5013107;28;20029;-70
2021/09/16 06:17:00;;;;;;;20.08;17.48;;;;;;;18.07;69.87;100718.25;5012579;28;20492;-70
2021/09/16 06:19:26;;;;;;;18.65;16.65;;;;;;;18.14;69.09;100706.13;5012660;28;20057;-69
2021/09/16 06:21:55;;;;;;;18.88;16.67;;;;;;;18.36;68.69;100725.50;5012879;28;20034;-69
2021/09/16 06:24:22;;;;;;;20.20;15.82;;;;;;;18.12;68.70;100680.00;5012255;28;20065;-67
2021/09/16 06:26:47;;;;;;;18.48;16.40;;;;;;;18.48;67.61;100722.09;5012329;28;20022;-67
2021/09/16 06:29:12;;;;;;;21.17;16.67;;;;;;;18.44;67.35;100687.22;5012453;28;20113;-69
2021/09/16 06:31:38;;;;;;;18.38;16.40;;;;;;;18.72;66.48;100704.00;5012638;28;20412;-71
2021/09/16 06:34:04;;;;;;;22.50;16.60;;;;;;;18.76;65.92;100708.38;5012204;28;20048;-69
2021/09/16 06:36:29;;;;;;;18.27;16.02;;;;;;;18.96;66.23;100714.66;5011267;28;20088;-70
2021/09/16 06:38:55;;;;;;;20.13;16.40;;;;;;;19.15;65.59;100721.75;5012192;28;20477;-67
2021/09/16 06:41:20;;;;;;;19.05;16.05;;;;;;;19.10;64.79;100684.19;4994588;28;20033;-71
2021/09/16 06:43:46;;;;;;;20.98;16.58;;;;;;;19.43;65.00;100715.75;5012260;28;20567;-69
2021/09/16 06:46:12;;;;;;;18.75;15.30;;;;;;;19.55;63.72;100724.56;5012155;28;20056;-69
2021/09/16 06:48:37;;;;;;;19.42;16.20;;;;;;;19.60;63.85;100723.69;5012313;28;20113;-71
2021/09/16 06:51:03;;;;;;;20.58;16.55;;;;;;;19.66;63.54;100721.97;5012283;28;20495;-70
2021/09/16 06:53:28;;;;;;;19.58;14.80;;;;;;;19.78;62.97;100726.38;5012211;28;20062;-70
2021/09/16 06:55:54;;;;;;;17.90;14.80;;;;;;;19.75;62.37;100700.19;4977482;28;20092;-69
2021/09/16 06:58:19;;;;;;;17.63;14.15;;;;;;;19.97;62.00;100718.59;5011758;28;20026;-68
2021/09/16 07:00:45;;;;;;;18.42;14.50;;;;;;;19.93;61.63;100695.91;4993400;28;20045;-68
2021/09/16 07:03:10;;;;;;;15.95;13.77;;;;;;;20.08;62.12;100724.75;5012134;28;20558;-67
2021/09/16 07:05:36;;;;;;;18.92;14.73;;;;;;;20.34;60.84;100727.38;5012058;28;20029;-70
2021/09/16 07:08:01;;;;;;;18.73;13.55;;;;;;;20.09;61.26;100700.28;5011926;28;20022;-69
2021/09/16 07:10:27;;;;;;;21.38;14.23;;;;;;;20.47;60.48;100719.53;5011982;28;20041;-71
2021/09/16 07:12:52;;;;;;;14.80;12.95;;;;;;;20.66;60.13;100723.00;5011889;28;20030;-70
2021/09/16 07:15:18;;;;;;;15.10;12.75;;;;;;;20.73;59.16;100709.06;5011892;28;20091;-69
2021/09/16 07:17:43;;;;;;;17.52;12.88;;;;;;;20.83;58.39;100702.91;5011562;28;20079;-70
2021/09/16 07:20:10;;;;;;;15.00;12.88;;;;;;;21.03;58.52;100714.25;5011777;28;20488;-69
2021/09/16 07:22:35;;;;;;;18.45;14.40;;;;;;;20.91;58.72;100715.16;5011718;28;20109;-70
2021/09/16 07:25:01;;;;;;;16.92;12.63;;;;;;;21.10;58.27;100711.63;5011548;28;20113;-70
2021/09/16 07:27:26;;;;;;;18.48;12.82;;;;;;;21.28;57.65;100718.56;5011355;28;20478;-70
2021/09/16 07:29:52;;;;;;;15.70;12.52;;;;;;;21.29;57.92;100715.03;5011542;28;20034;-68
2021/09/16 07:32:18;;;;;;;17.73;11.90;;;;;;;21.48;56.78;100720.22;5008150;28;20420;-69
2021/09/16 07:34:43;;;;;;;13.20;11.57;;;;;;;21.45;56.23;100715.88;5009500;28;20485;-68
2021/09/16 07:37:09;;;;;;;14.65;12.20;;;;;;;21.74;56.41;100725.41;4993536;28;20022;-70
2021/09/16 07:39:34;;;;;;;17.25;12.00;;;;;;;22.00;54.83;100727.00;5011796;28;20025;-69
2021/09/16 07:42:00;;;;;;;14.38;11.35;;;;;;;21.92;53.34;100728.81;5011167;28;20029;-70
2021/09/16 07:44:25;;;;;;;13.02;9.88;;;;;;;22.08;53.75;100735.72;5011473;28;20575;-70
2021/09/16 07:46:51;;;;;;;18.75;10.90;;;;;;;21.95;54.09;100737.53;5011190;28;20054;-68
2021/09/16 07:49:16;;;;;;;14.65;10.13;;;;;;;22.01;53.49;100736.66;5011335;28;20503;-71
2021/09/16 07:51:42;;;;;;;15.30;10.98;;;;;;;22.18;53.18;100736.56;5010899;28;20113;-70
2021/09/16 07:54:11;;;;;;;12.93;10.63;;;;;;;21.97;55.18;100696.34;5011066;28;20030;-68
2021/09/16 07:56:40;;;;;;;15.70;10.68;;;;;;;22.03;52.70;100734.00;5009413;28;20030;-70
2021/09/16 07:59:07;;;;;;;12.27;10.77;;;;;;;22.17;53.77;100731.28;5009819;28;20037;-70
2021/09/16 08:01:32;;;;;;;16.40;10.10;;;;;;;22.35;52.99;100731.16;4990910;28;20269;-70
2021/09/16 08:03:58;;;;;;;14.38;11.38;;;;;;;22.54;52.20;100725.78;5010938;28;20022;-70
2021/09/16 08:06:23;;;;;;;16.80;10.70;;;;;;;22.63;53.79;100725.72;5010680;28;20097;-70
2021/09/16 08:08:49;;;;;;;12.63;11.07;;;;;;;22.48;52.49;100710.94;5010539;28;20143;-68
2021/09/16 08:11:14;;;;;;;15.02;10.57;;;;;;;22.60;51.42;100710.81;5010923;28;20033;-68
2021/09/16 08:13:40;;;;;;;13.27;10.88;;;;;;;22.51;51.73;100707.41;5007451;28;20026;-68
2021/09/16 08:16:06;;;;;;;17.38;10.93;;;;;;;22.74;51.06;100700.16;5011047;28;20025;-68
2021/09/16 08:18:31;;;;;;;13.13;11.43;;;;;;;22.97;52.08;100704.31;4993367;28;20503;-69
2021/09/16 08:20:57;;;;;;;14.57;11.02;;;;;;;23.29;49.87;100705.75;5010824;28;20062;-68
2021/09/16 08:23:25;;;;;;;14.90;10.73;;;;;;;23.41;49.12;100702.09;5010865;28;20146;-68
2021/09/16 08:25:51;;;;;;;14.77;11.25;;;;;;;23.53;48.65;100694.03;5010554;28;20028;-69
2021/09/16 08:28:18;;;;;;;14.85;10.45;;;;;;;23.57;50.52;100698.34;4992189;28;20042;-68
2021/09/16 08:30:44;;;;;;;15.45;10.43;;;;;;;23.56;49.77;100696.63;5010407;28;20026;-70
2021/09/16 08:33:10;;;;;;;13.70;11.20;;;;;;;23.74;48.42;100706.03;5008033;28;20034;-67
2021/09/16 08:35:35;;;;;;;13.98;10.82;;;;;;;23.73;47.88;100662.13;5010567;28;21550;-68
2021/09/16 08:38:02;;;;;;;16.38;11.18;;;;;;;24.02;47.67;100695.09;5010840;28;20033;-68
2021/09/16 08:40:27;;;;;;;19.65;10.95;;;;;;;24.15;48.49;100687.91;5010459;28;20514;-68
2021/09/16 08:42:53;;;;;;;19.48;10.35;;;;;;;24.38;47.51;100695.41;5010463;28;20108;-69
2021/09/16 08:45:20;;;;;;;12.20;10.07;;;;;;;24.53;46.70;100688.16;5010552;28;20030;-67
2021/09/16 08:47:49;;;;;;;15.77;10.57;;;;;;;24.38;48.05;100652.34;5011208;28;20022;-68
2021/09/16 08:50:16;;;;;;;15.13;10.07;;;;;;;24.78;45.70;100678.03;5014146;28;20026;-68
2021/09/16 08:52:43;;;;;;;11.55;9.60;;;;;;;24.82;44.56;100660.38;5014267;28;20026;-67
2021/09/16 08:55:11;;;;;;;16.17;10.20;;;;;;;24.79;44.37;100634.91;5013861;28;20025;-68
2021/09/16 08:57:39;;;;;;;12.40;9.65;;;;;;;25.16;43.29;100668.50;5013632;28;20034;-67
2021/09/16 09:00:08;;;;;;;11.18;9.63;;;;;;;25.29;44.92;100674.41;4996917;28;20136;-68
2021/09/16 09:02:34;;;;;;;14.10;10.00;;;;;;;25.28;47.53;100666.50;5013593;28;20108;-69
2021/09/16 09:05:02;;;;;;;10.65;8.98;;;;;;;25.41;43.50;100661.84;4996398;28;20037;-68
2021/09/16 09:07:45;;;;;;;13.43;9.25;;;;;;;25.39;42.83;100626.69;5014044;28;20109;-67
2021/09/16 09:10:40;;;;;;;14.57;10.07;;;;;;;25.67;43.10;100658.63;5012439;28;20149;-67
2021/09/16 09:13:12;;;;;;;12.30;9.48;;;;;;;25.79;41.80;100650.41;4934058;29;20032;-68
2021/09/16 09:15:40;;;;;;;11.98;9.45;;;;;;;25.96;42.77;100660.59;4934332;29;20036;-69
2021/09/16 09:18:14;;;;;;;11.98;8.95;;;;;;;26.16;41.96;100640.75;4934455;29;20039;-69
2021/09/16 09:21:03;;;;;;;19.88;9.60;;;;;;;26.12;43.57;100615.25;4934390;29;20072;-68
2021/09/16 09:23:36;;;;;;;11.80;9.73;;;;;;;26.50;43.49;100645.16;4934032;29;20115;-68
2021/09/16 09:26:20;;;;;;;10.73;9.23;;;;;;;26.62;42.37;100644.84;4933921;29;20040;-68
2021/09/16 09:28:46;;;;;;;14.10;10.05;;;;;;;26.73;43.65;100630.44;4937929;29;20151;-69
2021/09/16 09:31:15;;;;;;;12.07;10.55;;;;;;;26.63;43.56;100633.34;4933957;29;20079;-69
2021/09/16 09:33:42;;;;;;;11.63;8.75;;;;;;;26.67;41.40;100642.06;4933761;29;20035;-67
2021/09/16 09:36:13;;;;;;;14.82;9.50;;;;;;;26.79;40.65;100640.88;4933321;29;20050;-69
2021/09/16 09:38:57;;;;;;;13.23;9.07;;;;;;;26.93;39.75;100628.13;4932091;29;20035;-70
2021/09/16 09:41:27;;;;;;;13.95;9.43;;;;;;;27.14;40.26;100631.06;4932135;29;20040;-68
2021/09/16 09:44:11;;;;;;;10.55;8.82;;;;;;;27.33;40.34;100636.69;4932411;29;20035;-72
2021/09/16 09:46:39;;;;;;;11.52;8.63;;;;;;;27.42;38.95;100627.63;4932398;29;20040;-66
2021/09/16 09:49:07;;;;;;;13.57;8.93;;;;;;;27.48;40.41;100627.44;4943239;28;20054;-67
2021/09/16 09:51:42;;;;;;;11.75;8.93;;;;;;;27.56;38.21;100624.53;4996564;28;20190;-67
2021/09/16 09:54:16;;;;;;;12.45;8.95;;;;;;;27.66;41.47;100625.97;4996451;28;20030;-69
2021/09/16 09:57:00;;;;;;;11.05;9.00;;;;;;;27.83;41.94;100621.94;4995364;28;20026;-66
2021/09/16 09:59:26;;;;;;;12.82;8.50;;;;;;;27.93;37.15;100618.91;4993916;28;20030;-70
2021/09/16 10:02:03;;;;;;;11.20;8.68;;;;;;;28.09;39.91;100619.31;4995213;28;20038;-72
2021/09/16 10:04:30;;;;;;;13.15;8.23;;;;;;;28.02;37.14;100590.34;4992981;28;20137;-67
2021/09/16 10:06:57;;;;;;;11.23;8.20;;;;;;;28.35;36.55;100612.22;4969866;28;20504;-66
2021/09/16 10:09:23;;;;;;;12.25;8.52;;;;;;;28.54;37.21;100607.13;5012366;28;20022;-65
2021/09/16 10:11:50;;;;;;;13.38;8.98;;;;;;;28.69;36.99;100604.88;5012812;28;20111;-69
2021/09/16 10:14:16;;;;;;;13.27;8.65;;;;;;;28.79;36.12;100611.59;5012569;28;20479;-71
2021/09/16 10:16:42;;;;;;;11.50;8.60;;;;;;;28.84;34.76;100601.66;4993509;28;20175;-68
2021/09/16 10:19:08;;;;;;;10.38;8.15;;;;;;;28.81;34.75;100601.78;4992053;28;20509;-68
2021/09/16 10:21:36;;;;;;;10.85;8.38;;;;;;;28.92;34.22;100605.81;4994790;28;20061;-68
2021/09/16 10:24:02;;;;;;;14.10;7.88;;;;;;;28.90;35.28;100571.34;4995670;28;20573;-67
2021/09/16 10:26:43;;;;;;;11.00;7.97;;;;;;;29.30;35.36;100601.72;5002869;28;20031;-67
2021/09/16 10:29:27;;;;;;;12.90;8.50;;;;;;;29.40;35.10;100602.22;5005750;28;20021;-65
2021/09/16 10:32:12;;;;;;;10.65;8.23;;;;;;;29.50;33.93;100600.91;5012027;28;20038;-67
2021/09/16 10:34:46;;;;;;;11.68;8.40;;;;;;;29.54;32.47;100575.91;4932229;29;20042;-66
2021/09/16 10:37:17;;;;;;;10.77;7.70;;;;;;;29.46;32.00;100579.81;4916473;29;20609;-66
2021/09/16 10:39:44;;;;;;;12.20;8.10;;;;;;;29.52;33.91;100588.44;4932306;29;20130;-66
2021/09/16 10:42:11;;;;;;;9.38;7.85;;;;;;;29.60;34.17;100571.31;4932403;29;20028;-66
2021/09/16 10:44:38;;;;;;;9.93;8.65;;;;;;;29.86;34.09;100568.41;4932107;29;20032;-66
2021/09/16 10:47:16;;;;;;;10.02;8.18;;;;;;;30.02;31.97;100575.78;4932360;29;20050;-66
2021/09/16 10:49:41;;;;;;;11.57;8.63;;;;;;;30.02;31.51;100570.47;4925932;29;20040;-65
2021/09/16 10:52:10;;;;;;;9.35;7.40;;;;;;;29.96;31.79;100576.91;4915064;29;20040;-65
2021/09/16 10:54:46;;;;;;;13.38;8.30;;;;;;;29.94;36.09;100540.63;4926204;29;20027;-66
2021/09/16 10:57:15;;;;;;;11.10;7.25;;;;;;;30.16;31.86;100554.75;4932243;29;20051;-68
2021/09/16 10:59:50;;;;;;;;;;;;;;;30.31;33.68;100563.00;4932562;29;20032;-71
2021/09/16 11:02:16;;;;;;;9.68;7.10;;;;;;;30.36;31.76;100562.78;4927176;29;19950;-66
2021/09/16 11:04:54;;;;;;;9.07;7.25;;;;;;;30.51;30.43;100564.81;4931766;29;20124;-67
2021/09/16 11:07:34;;;;;;;13.45;7.38;;;;;;;30.65;31.34;100550.84;4931940;29;20024;-66
2021/09/16 11:10:15;;;;;;;9.73;6.82;;;;;;;30.73;30.22;100547.81;4927986;29;20040;-70